Time;durP1;ratioP1;P1;durP2;ratioP2;P2;SDS_P1;SDS_P2;PMS_P1;PMS_P2;Temp;Humidity;BMP_temperature;BMP_pressure;BME280_temperature;BME280_humidity;BME280_pressure;Samples;Min_cycle;Max_cycle;Signal;HPM_P1;HPM_P2
2021/05/03 00:01:50;;;;;;;21.20;5.83;;;;;;;20.96;100.00;100544.41;4934779;29;20228;-74
2021/05/03 00:04:15;;;;;;;26.83;6.00;;;;;;;20.91;100.00;100551.25;4935191;29;20168;-74
2021/05/03 00:06:41;;;;;;;12.40;4.90;;;;;;;20.88;100.00;100560.47;4934876;29;20200;-70
2021/05/03 00:09:07;;;;;;;20.37;5.30;;;;;;;20.83;100.00;100559.31;4935216;29;20195;-75
2021/05/03 00:11:33;;;;;;;20.20;5.40;;;;;;;20.69;100.00;100553.69;4935055;29;20740;-72
2021/05/03 00:13:58;;;;;;;16.63;5.03;;;;;;;20.71;100.00;100556.22;4934978;29;20443;-74
2021/05/03 00:16:24;;;;;;;14.97;5.07;;;;;;;20.71;100.00;100559.72;4934821;29;20172;-74
2021/05/03 00:18:49;;;;;;;20.87;4.83;;;;;;;20.70;100.00;100558.03;4935015;29;20157;-73
2021/05/03 00:21:15;;;;;;;18.10;5.40;;;;;;;20.62;100.00;100568.72;4934948;29;20161;-74
2021/05/03 00:23:41;;;;;;;16.07;6.30;;;;;;;20.81;100.00;100553.31;4934709;29;20168;-73
2021/05/03 00:26:07;;;;;;;17.07;6.67;;;;;;;20.85;100.00;100558.13;4934798;29;20239;-73
2021/05/03 00:28:33;;;;;;;17.10;5.50;;;;;;;20.86;100.00;100554.47;4934835;29;20185;-74
2021/05/03 00:30:59;;;;;;;14.67;7.20;;;;;;;20.84;100.00;100550.28;4934474;29;20912;-74
2021/05/03 00:33:24;;;;;;;12.43;4.63;;;;;;;20.80;100.00;100546.31;4934546;29;20417;-75
2021/05/03 00:35:50;;;;;;;25.10;7.23;;;;;;;20.75;100.00;100545.00;4934621;29;20180;-74
2021/05/03 00:38:15;;;;;;;9.97;4.23;;;;;;;20.72;100.00;100542.69;4934438;29;20153;-74
2021/05/03 00:40:41;;;;;;;18.73;5.53;;;;;;;20.70;100.00;100533.16;4934441;29;20173;-74
2021/05/03 00:43:07;;;;;;;11.33;5.00;;;;;;;20.59;100.00;100533.53;4934570;29;20153;-74
2021/05/03 00:45:33;;;;;;;17.70;5.70;;;;;;;20.57;100.00;100533.72;4934508;29;20557;-75
2021/05/03 00:47:59;;;;;;;22.97;5.23;;;;;;;20.58;100.00;100532.72;4934223;29;20177;-73
2021/05/03 00:50:28;;;;;;;20.43;5.50;;;;;;;20.62;100.00;100531.34;4934445;29;20405;-74
2021/05/03 00:52:54;;;;;;;19.70;5.23;;;;;;;20.46;100.00;100539.41;4934294;29;20487;-75
2021/05/03 00:55:21;;;;;;;16.57;4.43;;;;;;;20.35;100.00;100548.59;4934008;29;20825;-74
2021/05/03 00:57:47;;;;;;;16.20;5.30;;;;;;;20.41;100.00;100547.09;4934454;29;20169;-72
2021/05/03 01:00:13;;;;;;;18.00;5.20;;;;;;;20.34;100.00;100549.63;4934796;29;20513;-73
2021/05/03 01:02:40;;;;;;;12.23;4.90;;;;;;;20.28;100.00;100549.44;4934184;29;20257;-74
2021/05/03 01:05:07;;;;;;;18.33;5.30;;;;;;;20.14;100.00;100546.47;4934234;29;20901;-74
2021/05/03 01:07:32;;;;;;;17.97;5.33;;;;;;;20.30;100.00;100548.28;4934379;29;20828;-74
2021/05/03 01:09:58;;;;;;;15.43;4.20;;;;;;;20.24;100.00;100547.09;4934267;29;20409;-74
2021/05/03 01:12:23;;;;;;;22.20;4.77;;;;;;;20.19;100.00;100536.13;4934003;29;20639;-74
2021/05/03 01:14:49;;;;;;;17.23;4.90;;;;;;;20.11;100.00;100536.16;4934256;29;20158;-72
2021/05/03 01:17:14;;;;;;;13.47;5.50;;;;;;;20.07;100.00;100531.31;4933907;29;20615;-74
2021/05/03 01:19:40;;;;;;;16.63;5.30;;;;;;;20.03;100.00;100519.34;4934287;29;20169;-73
2021/05/03 01:22:06;;;;;;;16.83;5.43;;;;;;;20.00;100.00;100515.16;4933453;29;20279;-74
2021/05/03 01:24:31;;;;;;;11.67;4.13;;;;;;;20.04;100.00;100521.81;4934159;29;20397;-71
2021/05/03 01:26:58;;;;;;;12.10;4.80;;;;;;;20.05;100.00;100515.47;4933967;29;20173;-71
2021/05/03 01:29:25;;;;;;;14.80;6.67;;;;;;;20.06;100.00;100508.31;4932768;29;20177;-73
2021/05/03 01:31:53;;;;;;;11.93;4.83;;;;;;;19.99;100.00;100510.81;4933927;29;20452;-73
2021/05/03 01:34:19;;;;;;;13.03;6.00;;;;;;;20.06;100.00;100501.13;4933957;29;21110;-71
2021/05/03 01:36:46;;;;;;;20.10;6.07;;;;;;;20.14;100.00;100502.94;4933926;29;20386;-70
2021/05/03 01:39:14;;;;;;;14.70;6.50;;;;;;;20.21;100.00;100510.09;4933816;29;20426;-74
2021/05/03 01:41:40;;;;;;;21.70;6.03;;;;;;;20.29;100.00;100497.75;4934084;29;20781;-74
2021/05/03 01:44:09;;;;;;;16.93;5.87;;;;;;;20.33;100.00;100499.06;4933796;29;20401;-74
2021/05/03 01:46:36;;;;;;;26.70;6.20;;;;;;;20.31;100.00;100495.72;4933746;29;20416;-74
2021/05/03 01:49:05;;;;;;;15.90;5.20;;;;;;;20.43;100.00;100487.19;4933750;29;20401;-74
2021/05/03 01:51:31;;;;;;;19.43;6.53;;;;;;;20.47;100.00;100487.69;4933671;29;20475;-74
2021/05/03 01:53:58;;;;;;;17.97;5.73;;;;;;;20.47;100.00;100490.34;4934039;29;20409;-74
2021/05/03 01:56:26;;;;;;;15.13;5.43;;;;;;;20.36;100.00;100491.56;4933543;29;20472;-74
2021/05/03 01:58:52;;;;;;;21.40;4.97;;;;;;;20.28;100.00;100498.75;4933721;29;20421;-74
2021/05/03 02:01:18;;;;;;;24.50;6.67;;;;;;;20.31;100.00;100503.75;4933765;29;20413;-74
2021/05/03 02:03:44;;;;;;;21.43;6.77;;;;;;;20.27;100.00;100499.75;4934075;29;20409;-74
2021/05/03 02:06:15;;;;;;;12.83;4.90;;;;;;;20.26;100.00;100500.78;4933659;29;20610;-73
2021/05/03 02:08:41;;;;;;;15.43;6.43;;;;;;;20.33;100.00;100515.06;4933617;29;20620;-73
2021/05/03 02:11:07;;;;;;;19.13;6.00;;;;;;;20.32;100.00;100521.41;4933633;29;20460;-73
2021/05/03 02:13:34;;;;;;;19.43;5.87;;;;;;;20.10;100.00;100522.97;4932362;29;20424;-74
2021/05/03 02:15:59;;;;;;;20.13;6.67;;;;;;;20.11;100.00;100529.97;4933640;29;20166;-72
2021/05/03 02:18:25;;;;;;;17.57;6.50;;;;;;;20.12;100.00;100528.97;4933629;29;20532;-73
2021/05/03 02:20:51;;;;;;;24.83;6.87;;;;;;;20.01;100.00;100537.31;4933591;29;20240;-74
2021/05/03 02:23:17;;;;;;;24.30;7.20;;;;;;;19.79;100.00;100544.16;4933713;29;20456;-73
2021/05/03 02:25:43;;;;;;;12.93;6.30;;;;;;;19.71;100.00;100539.66;4935384;29;20255;-74
2021/05/03 02:28:09;;;;;;;21.30;6.13;;;;;;;19.66;100.00;100537.50;4935804;29;20161;-74
2021/05/03 02:30:34;;;;;;;19.43;6.33;;;;;;;19.63;100.00;100539.66;4936861;29;20539;-72
2021/05/03 02:33:00;;;;;;;16.70;6.00;;;;;;;19.64;100.00;100539.50;4936791;29;20416;-73
2021/05/03 02:35:28;;;;;;;15.67;5.30;;;;;;;19.66;100.00;100539.34;4936808;29;20169;-73
2021/05/03 02:38:00;;;;;;;17.67;5.73;;;;;;;19.73;100.00;100539.53;4937067;29;20527;-74
2021/05/03 02:40:26;;;;;;;21.83;5.00;;;;;;;19.79;100.00;100541.50;4936568;29;20397;-72
2021/05/03 02:42:54;;;;;;;18.37;5.73;;;;;;;19.83;100.00;100543.66;4936617;29;20393;-75
2021/05/03 02:45:21;;;;;;;22.10;5.90;;;;;;;19.85;100.00;100543.50;4936722;29;20173;-71
2021/05/03 02:47:47;;;;;;;11.07;4.70;;;;;;;19.84;100.00;100533.84;4936557;29;20398;-71
2021/05/03 02:50:15;;;;;;;12.33;4.33;;;;;;;19.86;100.00;100531.81;4937061;29;20924;-73
2021/05/03 02:52:41;;;;;;;23.53;6.47;;;;;;;19.90;100.00;100530.50;4919865;29;21035;-74
2021/05/03 02:55:11;;;;;;;14.00;5.30;;;;;;;19.90;100.00;100531.34;4936511;29;20416;-73
2021/05/03 02:57:41;;;;;;;16.00;5.80;;;;;;;19.87;100.00;100531.66;4936268;29;21039;-73
2021/05/03 03:00:09;;;;;;;27.47;7.60;;;;;;;19.84;100.00;100540.00;4936782;29;20457;-74
2021/05/03 03:02:35;;;;;;;40.53;8.50;;;;;;;19.83;100.00;100551.66;4935385;29;20499;-74
2021/05/03 03:05:00;;;;;;;13.60;6.57;;;;;;;19.74;100.00;100565.19;4936562;29;20890;-70
2021/05/03 03:07:26;;;;;;;23.00;7.90;;;;;;;19.86;100.00;100567.31;4936180;29;20780;-75
2021/05/03 03:09:51;;;;;;;22.73;6.43;;;;;;;19.93;100.00;100565.66;4936076;29;20173;-72
2021/05/03 03:12:17;;;;;;;46.27;7.87;;;;;;;20.03;100.00;100567.34;4935951;29;20201;-73
2021/05/03 03:14:43;;;;;;;20.27;5.50;;;;;;;20.03;100.00;100578.00;4936089;29;20165;-74
2021/05/03 03:17:09;;;;;;;15.57;5.43;;;;;;;20.05;100.00;100587.50;4935910;29;20778;-73
2021/05/03 03:19:41;;;;;;;19.63;6.50;;;;;;;20.03;100.00;100602.03;4936245;29;20220;-71
2021/05/03 03:22:08;;;;;;;20.03;5.33;;;;;;;19.81;100.00;100625.69;4919261;29;20172;-73
2021/05/03 03:24:34;;;;;;;22.90;5.27;;;;;;;19.57;100.00;100638.94;4935879;29;20405;-73
2021/05/03 03:27:00;;;;;;;21.63;5.47;;;;;;;19.29;100.00;100649.00;4936184;29;20927;-74
2021/05/03 03:29:25;;;;;;;19.13;5.17;;;;;;;19.18;100.00;100659.94;4936416;29;20641;-74
2021/05/03 03:31:51;;;;;;;18.73;4.87;;;;;;;19.01;100.00;100667.88;4934427;29;20200;-74
2021/05/03 03:34:16;;;;;;;20.80;5.33;;;;;;;18.98;100.00;100657.53;4935903;29;20705;-74
2021/05/03 03:36:42;;;;;;;31.47;7.13;;;;;;;18.87;100.00;100667.63;4934586;29;20237;-74
2021/05/03 03:39:08;;;;;;;16.40;5.60;;;;;;;18.90;100.00;100692.13;4936019;29;20260;-71
2021/05/03 03:41:34;;;;;;;21.10;5.17;;;;;;;18.94;100.00;100671.31;4935465;29;20550;-73
2021/05/03 03:44:00;;;;;;;16.07;5.73;;;;;;;19.02;100.00;100661.53;4935604;29;20169;-71
2021/05/03 03:46:25;;;;;;;20.10;6.30;;;;;;;19.30;100.00;100664.84;4935849;29;20516;-73
2021/05/03 03:48:51;;;;;;;14.33;7.27;;;;;;;19.40;100.00;100667.34;4935286;29;20781;-73
2021/05/03 03:51:16;;;;;;;19.60;7.10;;;;;;;19.47;100.00;100676.38;4935352;29;20197;-74
2021/05/03 03:53:42;;;;;;;21.37;6.63;;;;;;;19.53;100.00;100678.41;4935369;29;20184;-72
2021/05/03 03:56:08;;;;;;;26.37;5.80;;;;;;;19.60;100.00;100679.47;4935167;29;20217;-72
2021/05/03 03:58:34;;;;;;;14.77;5.63;;;;;;;19.67;100.00;100674.31;4935395;29;20188;-71
2021/05/03 04:00:59;;;;;;;24.37;6.30;;;;;;;19.82;100.00;100671.84;4935255;29;20902;-73
2021/05/03 04:03:26;;;;;;;22.73;6.10;;;;;;;19.86;100.00;100665.16;4935222;29;20165;-73
2021/05/03 04:24:25;;;;;;;9.87;4.47;;;;;;;20.38;100.00;100675.53;4935095;29;20405;-71
2021/05/03 04:26:51;;;;;;;20.63;5.40;;;;;;;20.40;100.00;100670.84;4934785;29;20480;-74
2021/05/03 04:29:16;;;;;;;14.73;4.60;;;;;;;20.45;100.00;100684.56;4934841;29;20928;-74
2021/05/03 04:31:42;;;;;;;11.23;4.70;;;;;;;20.49;100.00;100696.59;4934512;29;20200;-74
2021/05/03 04:34:07;;;;;;;13.00;4.80;;;;;;;20.52;100.00;100714.09;4934866;29;20157;-70
2021/05/03 04:36:33;;;;;;;13.33;4.93;;;;;;;20.57;100.00;100706.44;4934556;29;20158;-74
2021/05/03 04:38:58;;;;;;;13.30;5.17;;;;;;;20.56;100.00;100708.28;4934999;29;20161;-74
2021/05/03 04:41:24;;;;;;;13.83;5.60;;;;;;;20.64;100.00;100705.59;4934669;29;20622;-74
2021/05/03 04:43:49;;;;;;;11.57;5.53;;;;;;;20.71;100.00;100705.75;4934505;29;20153;-73
2021/05/03 04:46:16;;;;;;;14.83;4.90;;;;;;;20.84;100.00;100721.22;4934429;29;20204;-73
2021/05/03 04:48:43;;;;;;;9.70;5.17;;;;;;;20.94;100.00;100700.53;4934555;29;20157;-70
2021/05/03 04:51:09;;;;;;;14.30;4.47;;;;;;;21.01;100.00;100702.34;4934218;29;20452;-73
2021/05/03 04:53:34;;;;;;;17.27;4.67;;;;;;;21.06;100.00;100728.53;4934327;29;20445;-73
2021/05/03 04:56:01;;;;;;;14.27;4.73;;;;;;;21.19;100.00;100731.50;4934159;29;20213;-70
2021/05/03 04:58:27;;;;;;;14.67;4.00;;;;;;;21.32;100.00;100737.19;4934056;29;20200;-73
2021/05/03 05:00:54;;;;;;;19.23;4.73;;;;;;;21.47;100.00;100734.63;4934260;29;20449;-74
2021/05/03 05:03:19;;;;;;;16.77;5.37;;;;;;;21.82;100.00;100727.09;4917307;29;20248;-73
2021/05/03 05:05:47;;;;;;;14.57;4.10;;;;;;;21.88;100.00;100731.75;4934112;29;20899;-72
2021/05/03 05:08:13;;;;;;;16.33;4.87;;;;;;;21.95;100.00;100746.09;4933306;29;20689;-74
2021/05/03 05:10:39;;;;;;;19.77;5.37;;;;;;;21.95;100.00;100756.78;4933946;29;20408;-71
2021/05/03 05:13:04;;;;;;;24.63;5.17;;;;;;;21.98;100.00;100755.59;4933803;29;20176;-71
2021/05/03 05:15:30;;;;;;;12.57;4.80;;;;;;;22.07;100.00;100759.91;4934188;29;20157;-74
2021/05/03 05:17:55;;;;;;;13.03;4.47;;;;;;;22.17;100.00;100755.19;4934172;29;20169;-71
2021/05/03 05:20:21;;;;;;;17.60;5.67;;;;;;;22.31;100.00;100761.63;4933806;29;20176;-71
2021/05/03 05:22:47;;;;;;;14.27;3.87;;;;;;;22.42;100.00;100766.53;4933860;29;20195;-71
2021/05/03 05:25:13;;;;;;;15.40;4.27;;;;;;;22.40;100.00;100768.56;4933962;29;20162;-74
2021/05/03 05:27:39;;;;;;;16.57;4.37;;;;;;;22.50;100.00;100758.44;4933766;29;20741;-75
2021/05/03 05:30:06;;;;;;;17.20;4.40;;;;;;;22.59;100.00;100754.66;4934110;29;20902;-73
2021/05/03 05:32:31;;;;;;;12.70;3.53;;;;;;;22.60;100.00;100756.38;4933675;29;20293;-74
2021/05/03 05:34:57;;;;;;;15.87;3.70;;;;;;;22.54;100.00;100743.69;4934036;29;20480;-74
2021/05/03 05:37:22;;;;;;;11.60;3.40;;;;;;;22.69;100.00;100741.88;4933541;29;20173;-73
2021/05/03 05:39:47;;;;;;;10.63;3.37;;;;;;;22.84;100.00;100743.75;4933963;29;20169;-74
2021/05/03 05:42:13;;;;;;;18.10;4.77;;;;;;;22.96;100.00;100745.00;4933846;29;20153;-75
2021/05/03 05:44:39;;;;;;;11.50;3.60;;;;;;;23.11;100.00;100750.38;4933543;29;20157;-74
2021/05/03 05:47:04;;;;;;;16.97;4.70;;;;;;;23.28;100.00;100745.69;4933684;29;20590;-71
2021/05/03 05:49:30;;;;;;;13.13;2.67;;;;;;;23.42;100.00;100731.41;4916899;29;20153;-72
2021/05/03 05:51:55;;;;;;;14.43;3.07;;;;;;;23.63;100.00;100739.56;4933276;29;20194;-73
2021/05/03 05:54:21;;;;;;;20.33;3.47;;;;;;;23.99;100.00;100752.16;4933778;29;20218;-74
2021/05/03 05:56:47;;;;;;;15.80;3.47;;;;;;;24.19;100.00;100765.81;4933489;29;20216;-73
2021/05/03 05:59:12;;;;;;;12.20;2.33;;;;;;;24.25;100.00;100767.72;4933686;29;20183;-74
2021/05/03 06:01:38;;;;;;;7.80;2.43;;;;;;;24.13;100.00;100766.56;4936948;29;20223;-75
2021/05/03 06:04:04;;;;;;;9.60;3.47;;;;;;;24.15;100.00;100740.34;4937375;29;20177;-74
2021/05/03 06:06:29;;;;;;;13.73;3.53;;;;;;;24.20;100.00;100741.44;4937290;29;20762;-75
2021/05/03 06:08:55;;;;;;;13.33;3.20;;;;;;;24.37;100.00;100757.31;4937028;29;20189;-74
2021/05/03 06:11:20;;;;;;;10.13;3.13;;;;;;;24.24;100.00;100760.69;4937013;29;20208;-74
2021/05/03 06:13:46;;;;;;;9.80;3.30;;;;;;;24.06;100.00;100770.00;4937045;29;20189;-73
2021/05/03 06:16:11;;;;;;;14.10;3.50;;;;;;;24.03;100.00;100764.16;4937137;29;20221;-74
2021/05/03 06:18:37;;;;;;;7.53;2.70;;;;;;;23.91;100.00;100763.00;4937018;29;20173;-73
2021/05/03 06:21:03;;;;;;;15.83;3.80;;;;;;;23.80;100.00;100757.13;4937197;29;20608;-72
2021/05/03 06:23:32;;;;;;;11.77;2.70;;;;;;;23.80;100.00;100764.31;4936785;29;20203;-71
2021/05/03 06:25:58;;;;;;;15.77;3.80;;;;;;;23.95;100.00;100770.47;4937066;29;20393;-75
2021/05/03 06:28:23;;;;;;;11.93;2.60;;;;;;;24.14;100.00;100755.63;4937107;29;20417;-71
2021/05/03 06:30:55;;;;;;;25.60;2.90;;;;;;;24.15;100.00;100749.22;4936557;29;20188;-74
2021/05/03 06:33:21;;;;;;;12.47;2.37;;;;;;;24.19;100.00;100755.91;4936859;29;20169;-73
2021/05/03 06:35:47;;;;;;;27.83;3.70;;;;;;;24.27;100.00;100765.69;4936948;29;20427;-74
2021/05/03 06:38:13;;;;;;;10.30;2.70;;;;;;;24.23;100.00;100756.34;4936797;29;20413;-75
2021/05/03 06:40:38;;;;;;;11.73;2.37;;;;;;;24.33;100.00;100757.72;4936965;29;20244;-72
2021/05/03 06:43:04;;;;;;;17.37;3.27;;;;;;;24.43;100.00;100751.19;4936606;29;20161;-73
2021/05/03 06:45:32;;;;;;;17.30;3.00;;;;;;;24.52;100.00;100755.41;4936711;29;20689;-72
2021/05/03 06:47:58;;;;;;;9.60;2.93;;;;;;;24.51;100.00;100762.63;4936600;29;20149;-73
2021/05/03 06:50:24;;;;;;;17.30;2.77;;;;;;;24.29;100.00;100767.16;4936207;29;20506;-75
2021/05/03 06:52:50;;;;;;;13.03;3.30;;;;;;;24.32;100.00;100777.53;4936463;29;20197;-74
2021/05/03 06:55:16;;;;;;;8.40;2.80;;;;;;;24.30;100.00;100784.09;4936044;29;20192;-74
2021/05/03 06:57:42;;;;;;;20.40;3.20;;;;;;;24.25;100.00;100797.25;4936191;29;20433;-74
2021/05/03 07:00:11;;;;;;;13.50;2.70;;;;;;;24.29;100.00;100804.75;4936720;29;20596;-74
2021/05/03 07:02:37;;;;;;;26.10;3.30;;;;;;;24.25;100.00;100783.81;4935925;29;20402;-74
2021/05/03 07:05:02;;;;;;;13.00;3.17;;;;;;;24.39;100.00;100798.25;4936145;29;20397;-75
2021/05/03 07:07:28;;;;;;;17.73;3.23;;;;;;;24.42;100.00;100801.41;4936346;29;20421;-74
2021/05/03 07:09:53;;;;;;;4.77;1.60;;;;;;;24.52;100.00;100798.41;4935979;29;20526;-75
2021/05/03 07:12:22;;;;;;;14.63;3.87;;;;;;;24.34;100.00;100796.16;4935716;29;20577;-75
2021/05/03 07:14:49;;;;;;;10.90;3.00;;;;;;;24.24;100.00;100793.72;4936030;29;20158;-73
2021/05/03 07:17:15;;;;;;;15.27;2.77;;;;;;;24.04;100.00;100790.03;4935917;29;20405;-73
2021/05/03 07:19:40;;;;;;;15.50;3.60;;;;;;;23.89;100.00;100808.84;4935896;29;20460;-74
2021/05/03 07:22:08;;;;;;;12.87;2.50;;;;;;;23.93;100.00;100806.59;4935582;29;20799;-74
2021/05/03 07:24:35;;;;;;;11.10;2.70;;;;;;;24.22;100.00;100811.91;4935618;29;20161;-72
2021/05/03 07:27:01;;;;;;;8.77;2.13;;;;;;;24.24;100.00;100806.34;4935716;29;20405;-74
2021/05/03 07:29:26;;;;;;;21.73;3.77;;;;;;;24.38;100.00;100810.84;4935711;29;20456;-75
2021/05/03 07:31:52;;;;;;;15.53;3.57;;;;;;;24.34;100.00;100804.22;4935366;29;20275;-72
2021/05/03 07:34:17;;;;;;;10.17;3.23;;;;;;;24.56;100.00;100821.16;4935298;29;20538;-74
2021/05/03 07:36:44;;;;;;;10.00;3.30;;;;;;;24.63;100.00;100814.81;4935471;29;20251;-73
2021/05/03 07:39:09;;;;;;;13.70;3.17;;;;;;;24.75;100.00;100814.31;4935631;29;20161;-72
2021/05/03 07:41:35;;;;;;;13.27;3.07;;;;;;;24.74;100.00;100800.03;4935513;29;20408;-72
2021/05/03 07:44:01;;;;;;;12.27;3.37;;;;;;;24.88;100.00;100783.00;4935627;29;20681;-73
2021/05/03 07:46:27;;;;;;;11.43;1.90;;;;;;;24.96;100.00;100767.75;4935232;29;20181;-72
2021/05/03 07:48:54;;;;;;;16.03;2.80;;;;;;;25.05;100.00;100788.13;4933949;29;20448;-71
2021/05/03 07:51:20;;;;;;;9.40;3.23;;;;;;;25.25;100.00;100788.25;4935315;29;20244;-73
2021/05/03 07:53:46;;;;;;;12.40;3.27;;;;;;;25.21;100.00;100774.38;4934808;29;20397;-74
2021/05/03 07:56:15;;;;;;;10.50;2.10;;;;;;;25.44;100.00;100757.94;4934636;29;20881;-73
2021/05/03 07:58:45;;;;;;;14.00;2.80;;;;;;;25.71;100.00;100756.19;4935244;29;20168;-74
2021/05/03 08:01:11;;;;;;;8.17;2.77;;;;;;;25.84;100.00;100758.13;4935175;29;20793;-73
2021/05/03 08:03:39;;;;;;;9.63;2.80;;;;;;;25.93;100.00;100765.00;4934614;29;20937;-73
2021/05/03 08:06:07;;;;;;;16.37;3.57;;;;;;;25.92;100.00;100763.31;4934895;29;20758;-73
2021/05/03 08:08:33;;;;;;;12.97;2.40;;;;;;;25.85;100.00;100767.88;4934775;29;20424;-74
2021/05/03 08:10:58;;;;;;;11.97;2.93;;;;;;;25.96;100.00;100751.13;4934406;29;20440;-74
2021/05/03 08:13:26;;;;;;;10.53;2.60;;;;;;;26.11;100.00;100765.25;4934662;29;20180;-71
2021/05/03 08:15:53;;;;;;;15.77;3.87;;;;;;;26.31;100.00;100746.44;4934608;29;20440;-73
2021/05/03 08:18:19;;;;;;;18.30;2.60;;;;;;;26.18;100.00;100741.03;4934626;29;20960;-74
2021/05/03 08:20:44;;;;;;;12.53;2.90;;;;;;;26.05;100.00;100752.59;4934539;29;20405;-73
2021/05/03 08:23:12;;;;;;;23.40;3.33;;;;;;;26.13;100.00;100738.94;4933948;29;20593;-73
2021/05/03 08:25:38;;;;;;;15.47;3.33;;;;;;;26.17;100.00;100742.91;4934430;29;20157;-73
2021/05/03 08:28:03;;;;;;;31.83;3.90;;;;;;;26.22;98.54;100740.44;4934629;29;20483;-73
2021/05/03 08:30:30;;;;;;;11.37;3.30;;;;;;;26.27;97.29;100737.94;4934554;29;20256;-74
2021/05/03 08:32:55;;;;;;;14.67;3.47;;;;;;;26.37;97.19;100729.44;4934020;29;20243;-72
2021/05/03 08:35:21;;;;;;;13.03;3.53;;;;;;;26.53;96.21;100733.66;4935998;29;20436;-72
2021/05/03 08:37:47;;;;;;;15.50;3.60;;;;;;;26.58;93.98;100733.84;4936975;29;20730;-74
2021/05/03 08:40:16;;;;;;;6.47;2.97;;;;;;;26.56;92.85;100735.91;4934111;29;20483;-73
2021/05/03 08:42:43;;;;;;;18.03;3.37;;;;;;;26.49;91.97;100729.69;4934260;29;20758;-75
2021/05/03 08:45:09;;;;;;;12.27;2.97;;;;;;;26.57;90.72;100726.78;4934552;29;20763;-73
2021/05/03 08:47:38;;;;;;;13.77;2.83;;;;;;;26.68;89.12;100725.34;4933840;29;20397;-71
2021/05/03 08:50:10;;;;;;;14.73;3.43;;;;;;;26.57;89.85;100716.00;4933822;29;20520;-72
2021/05/03 08:52:58;;;;;;;15.00;3.40;;;;;;;26.48;89.59;100722.66;4933763;29;20455;-74
2021/05/03 08:55:21;;;;;;;18.97;3.97;;;;;;;26.30;88.03;100739.41;4933338;29;20425;-74
2021/05/03 08:57:47;;;;;;;17.67;2.63;;;;;;;26.24;87.24;100735.66;4933989;29;20401;-74
2021/05/03 09:00:15;;;;;;;18.37;3.00;;;;;;;26.05;88.60;100746.38;4934170;29;20176;-73
2021/05/03 09:02:46;;;;;;;12.93;3.50;;;;;;;26.21;87.92;100751.38;4933681;29;20232;-75
2021/05/03 09:05:12;;;;;;;19.47;3.67;;;;;;;26.29;85.70;100737.72;4933868;29;20397;-75
2021/05/03 09:07:51;;;;;;;13.07;3.73;;;;;;;26.18;85.45;100749.13;4933815;29;20500;-75
2021/05/03 09:10:21;;;;;;;6.60;1.90;;;;;;;26.01;85.22;100751.38;4933811;29;20401;-75
2021/05/03 09:12:47;;;;;;;11.63;3.17;;;;;;;25.87;84.58;100749.66;4933572;29;20513;-73
2021/05/03 09:15:19;;;;;;;10.67;2.40;;;;;;;26.09;84.41;100729.63;4933320;29;20413;-73
2021/05/03 09:17:45;;;;;;;8.83;3.00;;;;;;;26.34;82.89;100740.63;4933571;29;20476;-74
2021/05/03 09:20:22;;;;;;;10.90;2.67;;;;;;;26.43;81.44;100742.13;4933150;29;20405;-72
2021/05/03 09:23:06;;;;;;;10.10;2.50;;;;;;;26.59;80.52;100748.97;4933212;29;20180;-74
2021/05/03 09:28:09;;;;;;;11.43;3.00;;;;;;;26.80;79.15;100724.50;4933493;29;20411;-74
2021/05/03 09:30:40;;;;;;;15.03;4.20;;;;;;;27.04;77.41;100711.41;4933329;29;20429;-72
2021/05/03 09:33:19;;;;;;;7.30;2.60;;;;;;;27.21;76.36;100718.03;4932753;29;20398;-74
2021/05/03 09:35:54;;;;;;;12.93;2.67;;;;;;;27.28;76.26;100726.94;4935465;29;20397;-74
2021/05/03 09:38:52;;;;;;;23.13;4.43;;;;;;;27.45;74.92;100739.94;4937106;29;20920;-73
2021/05/03 09:41:27;;;;;;;7.90;2.40;;;;;;;27.46;74.52;100730.81;4894963;29;20424;-72
2021/05/03 09:44:07;;;;;;;10.20;2.60;;;;;;;27.98;74.08;100720.81;4937089;29;20460;-71
2021/05/03 09:46:34;;;;;;;6.60;2.60;;;;;;;28.02;73.92;100732.81;4937499;29;20468;-71
2021/05/03 09:49:07;;;;;;;5.40;2.10;;;;;;;27.83;74.21;100727.34;4937177;29;20400;-75
2021/05/03 09:51:35;;;;;;;11.93;3.10;;;;;;;27.94;72.96;100742.03;4937118;29;20448;-74
2021/05/03 09:54:04;;;;;;;8.53;2.10;;;;;;;27.85;74.30;100740.63;4936890;29;20409;-75
2021/05/03 09:57:05;;;;;;;10.53;1.87;;;;;;;28.05;73.35;100735.13;4937235;29;20504;-74
2021/05/03 09:59:35;;;;;;;6.57;2.17;;;;;;;27.80;75.22;100733.16;4937447;29;20478;-74
2021/05/03 10:02:04;;;;;;;16.63;3.80;;;;;;;27.84;74.83;100726.28;4937331;29;20503;-75
2021/05/03 10:04:31;;;;;;;8.73;2.73;;;;;;;28.12;72.26;100727.78;4936612;29;20867;-73
2021/05/03 10:06:56;;;;;;;8.73;2.60;;;;;;;28.15;73.45;100725.47;4937086;29;20836;-73
2021/05/03 10:09:23;;;;;;;8.50;2.97;;;;;;;28.14;72.56;100731.94;4936765;29;20509;-74
2021/05/03 10:11:48;;;;;;;13.37;3.27;;;;;;;27.99;69.23;100727.88;4936792;29;20617;-74
2021/05/03 10:14:14;;;;;;;6.00;2.80;;;;;;;27.99;68.05;100749.50;4937828;29;20443;-76
2021/05/03 10:16:40;;;;;;;8.10;2.10;;;;;;;28.08;67.63;100745.47;4936912;29;20191;-74
2021/05/03 10:19:07;;;;;;;7.23;2.50;;;;;;;27.89;66.43;100753.50;4936870;29;20842;-74
2021/05/03 10:21:34;;;;;;;10.47;2.37;;;;;;;27.73;66.47;100753.97;4936217;29;20235;-72
2021/05/03 10:24:00;;;;;;;6.57;2.83;;;;;;;28.22;65.53;100738.94;4936237;29;20990;-74
2021/05/03 10:26:26;;;;;;;18.97;3.47;;;;;;;28.17;66.31;100758.50;4936306;29;20417;-73
2021/05/03 10:28:54;;;;;;;9.83;3.30;;;;;;;28.00;66.06;100770.06;4936119;29;20401;-73
2021/05/03 10:31:20;;;;;;;12.60;3.20;;;;;;;28.19;62.64;100783.47;4935039;29;20280;-74
2021/05/03 10:33:46;;;;;;;10.00;2.70;;;;;;;28.33;62.19;100765.28;4936330;29;20400;-73
2021/05/03 10:36:35;;;;;;;11.27;2.77;;;;;;;28.52;62.23;100797.81;4936136;29;20484;-74
2021/05/03 10:39:22;;;;;;;9.50;2.90;;;;;;;28.46;62.85;100767.06;4936358;29;20581;-73
2021/05/03 10:42:07;;;;;;;7.47;2.10;;;;;;;27.89;66.22;100766.16;4936073;29;20409;-75
2021/05/03 10:44:34;;;;;;;5.17;2.13;;;;;;;27.83;67.20;100773.25;4936041;29;20464;-74
2021/05/03 10:47:09;;;;;;;6.03;2.20;;;;;;;28.09;66.00;100787.66;4935589;29;20460;-74
2021/05/03 10:49:44;;;;;;;6.63;2.20;;;;;;;28.11;66.44;100772.06;4935971;29;20397;-72
2021/05/03 10:52:14;;;;;;;9.07;2.63;;;;;;;28.19;65.07;100769.94;4936053;29;20527;-73
2021/05/03 10:57:07;;;;;;;8.10;3.60;;;;;;;28.00;62.19;100780.84;4935647;29;20445;-73
2021/05/03 10:59:49;;;;;;;15.03;2.73;;;;;;;28.01;63.22;100804.13;4935718;29;20425;-73
2021/05/03 11:02:20;;;;;;;15.13;3.20;;;;;;;28.01;64.08;100775.22;4935824;29;20393;-72
2021/05/03 11:05:24;;;;;;;6.10;2.27;;;;;;;28.61;62.91;100785.69;4934995;29;20408;-73
2021/05/03 11:08:05;;;;;;;6.37;2.97;;;;;;;28.79;63.37;100765.97;4935681;29;21093;-73
2021/05/03 11:10:55;;;;;;;10.60;3.07;;;;;;;28.70;64.80;100760.84;4935259;29;20441;-73
2021/05/03 11:13:35;;;;;;;17.23;3.80;;;;;;;28.93;64.68;100759.44;4935384;29;20402;-72
2021/05/03 11:16:27;;;;;;;14.27;3.53;;;;;;;29.15;64.65;100778.78;4935173;29;20492;-71
2021/05/03 11:18:55;;;;;;;8.07;2.30;;;;;;;28.81;64.08;100790.94;4935328;29;20420;-74
2021/05/03 11:21:45;;;;;;;6.70;2.37;;;;;;;28.60;64.32;100789.44;4935484;29;20905;-75
2021/05/03 11:24:38;;;;;;;5.90;3.40;;;;;;;28.44;64.84;100780.00;4935536;29;20791;-75
2021/05/03 11:29:41;;;;;;;8.47;2.77;;;;;;;28.43;63.75;100789.97;4935638;29;20398;-73
2021/05/03 11:32:06;;;;;;;5.80;2.47;;;;;;;27.94;66.27;100779.84;4935370;29;20448;-73
2021/05/03 11:34:40;;;;;;;6.83;2.13;;;;;;;27.69;67.64;100777.06;4935161;29;20444;-73
2021/05/03 11:37:09;;;;;;;5.73;2.47;;;;;;;27.87;68.14;100781.75;4935209;29;20149;-75
2021/05/03 11:39:44;;;;;;;9.53;2.10;;;;;;;28.06;67.20;100786.22;4935426;29;20390;-73
2021/05/03 11:44:48;;;;;;;17.13;2.70;;;;;;;27.77;65.31;100778.69;4935212;29;20393;-73